sensor_id;sensor_type;location;lat;lon;timestamp;temperature;humidity
67759;SHT31;54562;47.620;18.786;2022-10-26T00:00:02;11.19;81.68
67759;SHT31;54562;47.620;18.786;2022-10-26T00:03:12;11.19;81.61
67759;SHT31;54562;47.620;18.786;2022-10-26T00:06:21;11.17;81.68
67759;SHT31;54562;47.620;18.786;2022-10-26T00:09:31;11.13;81.53
67759;SHT31;54562;47.620;18.786;2022-10-26T00:12:39;11.10;81.57
67759;SHT31;54562;47.620;18.786;2022-10-26T00:15:47;11.08;81.72
67759;SHT31;54562;47.620;18.786;2022-10-26T00:18:55;11.06;81.62
67759;SHT31;54562;47.620;18.786;2022-10-26T00:22:03;11.01;81.62
67759;SHT31;54562;47.620;18.786;2022-10-26T00:25:11;10.97;81.66
67759;SHT31;54562;47.620;18.786;2022-10-26T00:28:19;10.95;81.97
67759;SHT31;54562;47.620;18.786;2022-10-26T00:31:27;10.94;82.03
67759;SHT31;54562;47.620;18.786;2022-10-26T00:34:35;10.93;82.13
67759;SHT31;54562;47.620;18.786;2022-10-26T00:37:43;10.93;82.25
67759;SHT31;54562;47.620;18.786;2022-10-26T00:40:52;10.93;82.31
67759;SHT31;54562;47.620;18.786;2022-10-26T00:48:04;11.03;83.22
67759;SHT31;54562;47.620;18.786;2022-10-26T00:51:19;11.02;82.84
67759;SHT31;54562;47.620;18.786;2022-10-26T00:54:35;11.05;83.17
67759;SHT31;54562;47.620;18.786;2022-10-26T00:57:43;11.09;83.42
67759;SHT31;54562;47.620;18.786;2022-10-26T01:00:51;11.11;83.48
67759;SHT31;54562;47.620;18.786;2022-10-26T01:04:00;11.12;83.45
67759;SHT31;54562;47.620;18.786;2022-10-26T01:07:08;11.14;83.47
67759;SHT31;54562;47.620;18.786;2022-10-26T01:10:17;11.15;83.53
67759;SHT31;54562;47.620;18.786;2022-10-26T01:13:26;11.15;83.54
67759;SHT31;54562;47.620;18.786;2022-10-26T01:16:41;11.18;83.60
67759;SHT31;54562;47.620;18.786;2022-10-26T01:20:24;11.21;83.85
67759;SHT31;54562;47.620;18.786;2022-10-26T01:24:11;11.26;84.16
67759;SHT31;54562;47.620;18.786;2022-10-26T01:27:49;11.30;84.33
67759;SHT31;54562;47.620;18.786;2022-10-26T01:31:00;11.26;83.77
67759;SHT31;54562;47.620;18.786;2022-10-26T01:34:18;11.23;83.82
67759;SHT31;54562;47.620;18.786;2022-10-26T01:37:36;11.22;83.89
67759;SHT31;54562;47.620;18.786;2022-10-26T01:40:53;11.22;83.86
67759;SHT31;54562;47.620;18.786;2022-10-26T01:44:08;11.20;83.55
67759;SHT31;54562;47.620;18.786;2022-10-26T01:47:22;11.20;83.71
67759;SHT31;54562;47.620;18.786;2022-10-26T01:50:32;11.22;83.94
67759;SHT31;54562;47.620;18.786;2022-10-26T01:53:45;11.24;84.03
67759;SHT31;54562;47.620;18.786;2022-10-26T01:56:53;11.28;84.40
67759;SHT31;54562;47.620;18.786;2022-10-26T02:00:08;11.34;84.72
67759;SHT31;54562;47.620;18.786;2022-10-26T02:03:19;11.39;84.97
67759;SHT31;54562;47.620;18.786;2022-10-26T02:06:38;11.44;85.19
67759;SHT31;54562;47.620;18.786;2022-10-26T02:13:36;11.54;85.04
67759;SHT31;54562;47.620;18.786;2022-10-26T02:16:54;11.49;83.99
67759;SHT31;54562;47.620;18.786;2022-10-26T02:20:10;11.43;83.77
67759;SHT31;54562;47.620;18.786;2022-10-26T02:23:25;11.40;83.82
67759;SHT31;54562;47.620;18.786;2022-10-26T02:26:36;11.41;84.13
67759;SHT31;54562;47.620;18.786;2022-10-26T02:29:49;11.41;84.19
67759;SHT31;54562;47.620;18.786;2022-10-26T02:33:01;11.42;84.23
67759;SHT31;54562;47.620;18.786;2022-10-26T02:36:12;11.45;84.58
67759;SHT31;54562;47.620;18.786;2022-10-26T02:39:26;11.49;84.92
67759;SHT31;54562;47.620;18.786;2022-10-26T02:42:38;11.53;85.08
67759;SHT31;54562;47.620;18.786;2022-10-26T02:45:51;11.54;84.82
67759;SHT31;54562;47.620;18.786;2022-10-26T02:49:04;11.54;84.57
67759;SHT31;54562;47.620;18.786;2022-10-26T02:52:14;11.53;84.61
67759;SHT31;54562;47.620;18.786;2022-10-26T02:55:33;11.54;84.63
67759;SHT31;54562;47.620;18.786;2022-10-26T02:58:48;11.54;84.51
67759;SHT31;54562;47.620;18.786;2022-10-26T03:02:03;11.47;83.70
67759;SHT31;54562;47.620;18.786;2022-10-26T03:05:12;11.38;83.46
67759;SHT31;54562;47.620;18.786;2022-10-26T03:08:24;11.32;83.44
67759;SHT31;54562;47.620;18.786;2022-10-26T03:11:33;11.27;83.64
67759;SHT31;54562;47.620;18.786;2022-10-26T03:14:40;11.26;83.85
67759;SHT31;54562;47.620;18.786;2022-10-26T03:17:48;11.26;84.01
67759;SHT31;54562;47.620;18.786;2022-10-26T03:20:57;11.20;83.24
67759;SHT31;54562;47.620;18.786;2022-10-26T03:24:06;11.04;82.97
67759;SHT31;54562;47.620;18.786;2022-10-26T03:27:14;10.94;83.34
67759;SHT31;54562;47.620;18.786;2022-10-26T03:30:22;10.85;83.53
67759;SHT31;54562;47.620;18.786;2022-10-26T03:33:30;10.82;83.71
67759;SHT31;54562;47.620;18.786;2022-10-26T03:36:43;10.80;83.90
67759;SHT31;54562;47.620;18.786;2022-10-26T03:39:50;10.80;84.00
67759;SHT31;54562;47.620;18.786;2022-10-26T03:42:59;10.76;83.98
67759;SHT31;54562;47.620;18.786;2022-10-26T03:46:07;10.73;83.98
67759;SHT31;54562;47.620;18.786;2022-10-26T03:49:15;10.60;83.75
67759;SHT31;54562;47.620;18.786;2022-10-26T03:52:23;10.45;83.44
67759;SHT31;54562;47.620;18.786;2022-10-26T03:55:31;10.34;83.43
67759;SHT31;54562;47.620;18.786;2022-10-26T03:58:39;10.22;83.56
67759;SHT31;54562;47.620;18.786;2022-10-26T04:01:47;10.16;83.76
67759;SHT31;54562;47.620;18.786;2022-10-26T04:04:59;10.12;83.85
67759;SHT31;54562;47.620;18.786;2022-10-26T04:08:08;10.13;84.22
67759;SHT31;54562;47.620;18.786;2022-10-26T04:11:16;10.11;84.59
67759;SHT31;54562;47.620;18.786;2022-10-26T04:14:24;10.12;84.72
67759;SHT31;54562;47.620;18.786;2022-10-26T04:17:32;10.17;85.00
67759;SHT31;54562;47.620;18.786;2022-10-26T04:20:40;10.23;85.14
67759;SHT31;54562;47.620;18.786;2022-10-26T04:23:48;10.28;85.23
67759;SHT31;54562;47.620;18.786;2022-10-26T04:26:56;10.33;85.48
67759;SHT31;54562;47.620;18.786;2022-10-26T04:30:05;10.39;85.62
67759;SHT31;54562;47.620;18.786;2022-10-26T04:33:15;10.45;85.78
67759;SHT31;54562;47.620;18.786;2022-10-26T04:36:23;10.49;85.80
67759;SHT31;54562;47.620;18.786;2022-10-26T04:39:32;10.52;85.77
67759;SHT31;54562;47.620;18.786;2022-10-26T04:42:43;10.59;86.09
67759;SHT31;54562;47.620;18.786;2022-10-26T04:45:54;10.64;86.18
67759;SHT31;54562;47.620;18.786;2022-10-26T04:49:03;10.67;86.07
67759;SHT31;54562;47.620;18.786;2022-10-26T04:52:11;10.70;86.07
67759;SHT31;54562;47.620;18.786;2022-10-26T04:55:19;10.73;86.18
67759;SHT31;54562;47.620;18.786;2022-10-26T04:58:27;10.78;86.30
67759;SHT31;54562;47.620;18.786;2022-10-26T05:01:35;10.80;86.16
67759;SHT31;54562;47.620;18.786;2022-10-26T05:04:43;10.80;86.04
67759;SHT31;54562;47.620;18.786;2022-10-26T05:07:53;10.81;86.06
67759;SHT31;54562;47.620;18.786;2022-10-26T05:11:03;10.81;85.93
67759;SHT31;54562;47.620;18.786;2022-10-26T05:14:11;10.80;85.90
67759;SHT31;54562;47.620;18.786;2022-10-26T05:17:19;10.79;85.81
67759;SHT31;54562;47.620;18.786;2022-10-26T05:20:26;10.79;85.72
67759;SHT31;54562;47.620;18.786;2022-10-26T05:23:37;10.78;85.72
67759;SHT31;54562;47.620;18.786;2022-10-26T05:26:44;10.81;86.02
67759;SHT31;54562;47.620;18.786;2022-10-26T05:29:52;10.84;86.25
67759;SHT31;54562;47.620;18.786;2022-10-26T05:33:00;10.87;86.44
67759;SHT31;54562;47.620;18.786;2022-10-26T05:36:10;10.91;86.57
67759;SHT31;54562;47.620;18.786;2022-10-26T05:39:18;10.95;86.72
67759;SHT31;54562;47.620;18.786;2022-10-26T05:42:26;10.97;86.87
67759;SHT31;54562;47.620;18.786;2022-10-26T05:45:34;11.04;87.03
67759;SHT31;54562;47.620;18.786;2022-10-26T05:48:42;11.10;87.16
67759;SHT31;54562;47.620;18.786;2022-10-26T05:51:50;11.19;87.34
67759;SHT31;54562;47.620;18.786;2022-10-26T05:54:59;11.29;87.53
67759;SHT31;54562;47.620;18.786;2022-10-26T05:58:13;11.41;87.60
67759;SHT31;54562;47.620;18.786;2022-10-26T06:01:24;11.56;87.68
67759;SHT31;54562;47.620;18.786;2022-10-26T06:04:44;11.72;87.47
67759;SHT31;54562;47.620;18.786;2022-10-26T06:07:54;11.84;87.39
67759;SHT31;54562;47.620;18.786;2022-10-26T06:11:04;12.00;87.30
67759;SHT31;54562;47.620;18.786;2022-10-26T06:14:16;12.17;87.32
67759;SHT31;54562;47.620;18.786;2022-10-26T06:17:30;12.34;87.34
67759;SHT31;54562;47.620;18.786;2022-10-26T06:21:00;12.54;87.36
67759;SHT31;54562;47.620;18.786;2022-10-26T06:24:28;12.72;86.94
67759;SHT31;54562;47.620;18.786;2022-10-26T06:27:47;12.81;86.54
67759;SHT31;54562;47.620;18.786;2022-10-26T06:31:05;12.89;86.34
67759;SHT31;54562;47.620;18.786;2022-10-26T06:34:17;12.98;86.17
67759;SHT31;54562;47.620;18.786;2022-10-26T06:37:31;13.08;86.11
67759;SHT31;54562;47.620;18.786;2022-10-26T06:40:41;13.18;86.03
67759;SHT31;54562;47.620;18.786;2022-10-26T06:43:50;13.27;85.97
67759;SHT31;54562;47.620;18.786;2022-10-26T06:47:01;13.37;85.88
67759;SHT31;54562;47.620;18.786;2022-10-26T06:50:35;13.48;85.76
67759;SHT31;54562;47.620;18.786;2022-10-26T06:53:54;13.58;85.66
67759;SHT31;54562;47.620;18.786;2022-10-26T06:57:11;13.68;85.57
67759;SHT31;54562;47.620;18.786;2022-10-26T07:00:23;13.75;85.36
67759;SHT31;54562;47.620;18.786;2022-10-26T07:03:34;13.79;85.25
67759;SHT31;54562;47.620;18.786;2022-10-26T07:21:31;15.03;84.22
67759;SHT31;54562;47.620;18.786;2022-10-26T07:24:39;15.08;83.82
67759;SHT31;54562;47.620;18.786;2022-10-26T07:31:24;14.97;83.15
67759;SHT31;54562;47.620;18.786;2022-10-26T07:34:34;14.95;83.20
67759;SHT31;54562;47.620;18.786;2022-10-26T07:37:45;14.93;83.11
67759;SHT31;54562;47.620;18.786;2022-10-26T07:40:54;14.91;82.98
67759;SHT31;54562;47.620;18.786;2022-10-26T07:44:13;14.93;83.10
67759;SHT31;54562;47.620;18.786;2022-10-26T07:47:21;14.96;83.22
67759;SHT31;54562;47.620;18.786;2022-10-26T07:50:32;14.95;82.96
67759;SHT31;54562;47.620;18.786;2022-10-26T07:53:40;14.89;82.93
67759;SHT31;54562;47.620;18.786;2022-10-26T07:56:50;14.82;82.75
67759;SHT31;54562;47.620;18.786;2022-10-26T07:59:58;14.76;82.80
67759;SHT31;54562;47.620;18.786;2022-10-26T08:03:11;14.81;82.75
67759;SHT31;54562;47.620;18.786;2022-10-26T08:06:19;14.82;82.43
67759;SHT31;54562;47.620;18.786;2022-10-26T08:09:28;14.83;82.18
67759;SHT31;54562;47.620;18.786;2022-10-26T08:12:36;14.79;81.80
67759;SHT31;54562;47.620;18.786;2022-10-26T08:15:44;14.79;81.78
67759;SHT31;54562;47.620;18.786;2022-10-26T08:18:53;14.81;81.46
67759;SHT31;54562;47.620;18.786;2022-10-26T08:22:02;14.78;81.22
67759;SHT31;54562;47.620;18.786;2022-10-26T08:25:10;14.81;81.28
67759;SHT31;54562;47.620;18.786;2022-10-26T08:28:23;14.83;81.11
67759;SHT31;54562;47.620;18.786;2022-10-26T08:31:32;14.86;80.78
67759;SHT31;54562;47.620;18.786;2022-10-26T08:34:40;14.83;80.69
67759;SHT31;54562;47.620;18.786;2022-10-26T08:37:50;14.89;81.03
67759;SHT31;54562;47.620;18.786;2022-10-26T08:41:04;15.02;80.97
67759;SHT31;54562;47.620;18.786;2022-10-26T08:44:19;15.19;81.21
67759;SHT31;54562;47.620;18.786;2022-10-26T08:47:38;15.42;81.27
67759;SHT31;54562;47.620;18.786;2022-10-26T08:50:52;15.58;81.03
67759;SHT31;54562;47.620;18.786;2022-10-26T08:54:08;15.78;81.14
67759;SHT31;54562;47.620;18.786;2022-10-26T08:57:23;15.95;80.82
67759;SHT31;54562;47.620;18.786;2022-10-26T09:00:37;16.14;81.09
67759;SHT31;54562;47.620;18.786;2022-10-26T09:03:49;16.36;81.00
67759;SHT31;54562;47.620;18.786;2022-10-26T09:07:00;16.49;80.70
67759;SHT31;54562;47.620;18.786;2022-10-26T09:10:23;16.61;80.73
67759;SHT31;54562;47.620;18.786;2022-10-26T09:13:46;16.67;80.60
67759;SHT31;54562;47.620;18.786;2022-10-26T09:17:10;16.79;80.45
67759;SHT31;54562;47.620;18.786;2022-10-26T09:20:40;16.86;80.33
67759;SHT31;54562;47.620;18.786;2022-10-26T09:24:05;16.80;80.13
67759;SHT31;54562;47.620;18.786;2022-10-26T09:27:20;16.59;80.13
67759;SHT31;54562;47.620;18.786;2022-10-26T09:30:34;16.45;80.31
67759;SHT31;54562;47.620;18.786;2022-10-26T09:37:38;16.09;80.82
67759;SHT31;54562;47.620;18.786;2022-10-26T09:41:21;15.96;81.22
67759;SHT31;54562;47.620;18.786;2022-10-26T09:44:49;15.93;81.39
67759;SHT31;54562;47.620;18.786;2022-10-26T09:48:15;15.95;81.53
67759;SHT31;54562;47.620;18.786;2022-10-26T09:51:47;15.95;81.53
67759;SHT31;54562;47.620;18.786;2022-10-26T09:55:11;15.91;81.43
67759;SHT31;54562;47.620;18.786;2022-10-26T09:58:33;15.82;81.32
67759;SHT31;54562;47.620;18.786;2022-10-26T10:01:54;15.75;81.54
67759;SHT31;54562;47.620;18.786;2022-10-26T10:05:23;15.68;81.48
67759;SHT31;54562;47.620;18.786;2022-10-26T10:09:06;15.63;81.48
67759;SHT31;54562;47.620;18.786;2022-10-26T10:12:31;15.57;81.48
67759;SHT31;54562;47.620;18.786;2022-10-26T10:15:54;15.58;81.66
67759;SHT31;54562;47.620;18.786;2022-10-26T10:19:19;15.62;81.68
67759;SHT31;54562;47.620;18.786;2022-10-26T10:22:31;15.65;81.71
67759;SHT31;54562;47.620;18.786;2022-10-26T10:25:39;15.68;81.74
67759;SHT31;54562;47.620;18.786;2022-10-26T10:28:56;15.69;81.59
67759;SHT31;54562;47.620;18.786;2022-10-26T10:32:10;15.67;81.49
67759;SHT31;54562;47.620;18.786;2022-10-26T10:35:27;15.62;81.53
67759;SHT31;54562;47.620;18.786;2022-10-26T10:38:43;15.65;81.68
67759;SHT31;54562;47.620;18.786;2022-10-26T10:42:22;15.77;81.58
67759;SHT31;54562;47.620;18.786;2022-10-26T10:46:01;15.81;81.30
67759;SHT31;54562;47.620;18.786;2022-10-26T10:49:17;15.84;81.39
67759;SHT31;54562;47.620;18.786;2022-10-26T10:57:04;16.00;81.01
67759;SHT31;54562;47.620;18.786;2022-10-26T11:00:38;16.08;80.83
67759;SHT31;54562;47.620;18.786;2022-10-26T11:04:15;16.12;80.96
67759;SHT31;54562;47.620;18.786;2022-10-26T11:07:53;16.30;81.01
67759;SHT31;54562;47.620;18.786;2022-10-26T11:11:45;16.60;80.86
67759;SHT31;54562;47.620;18.786;2022-10-26T11:15:11;16.82;80.30
67759;SHT31;54562;47.620;18.786;2022-10-26T11:18:32;17.02;79.71
67759;SHT31;54562;47.620;18.786;2022-10-26T11:21:48;17.17;79.31
67759;SHT31;54562;47.620;18.786;2022-10-26T11:25:00;17.31;79.25
67759;SHT31;54562;47.620;18.786;2022-10-26T11:28:18;17.34;78.49
67759;SHT31;54562;47.620;18.786;2022-10-26T11:31:38;17.27;78.01
67759;SHT31;54562;47.620;18.786;2022-10-26T11:34:56;17.27;77.97
67759;SHT31;54562;47.620;18.786;2022-10-26T11:38:13;17.21;77.57
67759;SHT31;54562;47.620;18.786;2022-10-26T11:41:49;17.08;77.82
67759;SHT31;54562;47.620;18.786;2022-10-26T11:45:07;17.05;77.91
67759;SHT31;54562;47.620;18.786;2022-10-26T11:48:20;17.01;77.79
67759;SHT31;54562;47.620;18.786;2022-10-26T11:51:39;16.96;77.73
67759;SHT31;54562;47.620;18.786;2022-10-26T11:54:55;16.99;78.00
67759;SHT31;54562;47.620;18.786;2022-10-26T11:58:08;17.02;77.95
67759;SHT31;54562;47.620;18.786;2022-10-26T12:01:18;16.96;77.47
67759;SHT31;54562;47.620;18.786;2022-10-26T12:04:29;16.91;77.53
67759;SHT31;54562;47.620;18.786;2022-10-26T12:07:43;16.91;77.64
67759;SHT31;54562;47.620;18.786;2022-10-26T12:10:59;16.95;77.39
67759;SHT31;54562;47.620;18.786;2022-10-26T12:14:18;17.02;77.32
67759;SHT31;54562;47.620;18.786;2022-10-26T12:17:33;17.11;77.01
67759;SHT31;54562;47.620;18.786;2022-10-26T12:20:56;17.34;77.00
67759;SHT31;54562;47.620;18.786;2022-10-26T12:27:49;17.67;76.13
67759;SHT31;54562;47.620;18.786;2022-10-26T12:34:58;17.82;75.38
67759;SHT31;54562;47.620;18.786;2022-10-26T12:42:17;17.76;75.32
67759;SHT31;54562;47.620;18.786;2022-10-26T12:45:35;17.66;75.38
67759;SHT31;54562;47.620;18.786;2022-10-26T12:48:43;17.61;75.48
67759;SHT31;54562;47.620;18.786;2022-10-26T12:51:53;17.55;75.46
67759;SHT31;54562;47.620;18.786;2022-10-26T12:55:12;17.48;75.38
67759;SHT31;54562;47.620;18.786;2022-10-26T13:06:15;17.40;75.67
67759;SHT31;54562;47.620;18.786;2022-10-26T13:09:41;17.38;75.76
67759;SHT31;54562;47.620;18.786;2022-10-26T13:13:17;17.36;75.61
67759;SHT31;54562;47.620;18.786;2022-10-26T13:16:29;17.33;75.85
67759;SHT31;54562;47.620;18.786;2022-10-26T13:19:43;17.34;75.86
67759;SHT31;54562;47.620;18.786;2022-10-26T13:22:58;17.34;75.93
67759;SHT31;54562;47.620;18.786;2022-10-26T13:26:08;17.30;75.94
67759;SHT31;54562;47.620;18.786;2022-10-26T13:29:18;17.27;75.99
67759;SHT31;54562;47.620;18.786;2022-10-26T13:32:34;17.22;75.93
67759;SHT31;54562;47.620;18.786;2022-10-26T13:35:46;17.16;75.86
67759;SHT31;54562;47.620;18.786;2022-10-26T13:38:57;17.11;75.37
67759;SHT31;54562;47.620;18.786;2022-10-26T13:42:14;17.02;74.90
67759;SHT31;54562;47.620;18.786;2022-10-26T13:45:29;16.96;74.99
67759;SHT31;54562;47.620;18.786;2022-10-26T13:48:43;16.92;74.80
67759;SHT31;54562;47.620;18.786;2022-10-26T13:51:53;16.89;74.98
67759;SHT31;54562;47.620;18.786;2022-10-26T13:55:04;16.88;75.10
67759;SHT31;54562;47.620;18.786;2022-10-26T13:58:24;16.86;75.08
67759;SHT31;54562;47.620;18.786;2022-10-26T14:01:40;16.87;75.22
67759;SHT31;54562;47.620;18.786;2022-10-26T14:04:50;16.88;75.23
67759;SHT31;54562;47.620;18.786;2022-10-26T14:08:03;16.86;75.28
67759;SHT31;54562;47.620;18.786;2022-10-26T14:11:18;16.81;75.20
67759;SHT31;54562;47.620;18.786;2022-10-26T14:14:45;16.72;75.30
67759;SHT31;54562;47.620;18.786;2022-10-26T14:18:11;16.65;75.57
67759;SHT31;54562;47.620;18.786;2022-10-26T14:21:24;16.61;75.69
67759;SHT31;54562;47.620;18.786;2022-10-26T14:24:34;16.56;75.71
67759;SHT31;54562;47.620;18.786;2022-10-26T14:27:49;16.51;75.92
67759;SHT31;54562;47.620;18.786;2022-10-26T14:31:11;16.47;76.05
67759;SHT31;54562;47.620;18.786;2022-10-26T14:34:26;16.44;76.25
67759;SHT31;54562;47.620;18.786;2022-10-26T14:37:36;16.40;76.28
67759;SHT31;54562;47.620;18.786;2022-10-26T14:40:51;16.38;76.47
67759;SHT31;54562;47.620;18.786;2022-10-26T14:44:02;16.34;76.57
67759;SHT31;54562;47.620;18.786;2022-10-26T14:47:22;16.32;76.66
67759;SHT31;54562;47.620;18.786;2022-10-26T14:50:33;16.29;76.83
67759;SHT31;54562;47.620;18.786;2022-10-26T14:53:46;16.28;76.91
67759;SHT31;54562;47.620;18.786;2022-10-26T14:56:57;16.25;76.97
67759;SHT31;54562;47.620;18.786;2022-10-26T15:00:13;16.22;77.13
67759;SHT31;54562;47.620;18.786;2022-10-26T15:03:24;16.18;77.20
67759;SHT31;54562;47.620;18.786;2022-10-26T15:06:40;16.16;77.30
67759;SHT31;54562;47.620;18.786;2022-10-26T15:09:50;16.12;77.30
67759;SHT31;54562;47.620;18.786;2022-10-26T15:12:58;16.11;77.30
67759;SHT31;54562;47.620;18.786;2022-10-26T15:16:22;16.08;77.35
67759;SHT31;54562;47.620;18.786;2022-10-26T15:19:33;16.07;77.49
67759;SHT31;54562;47.620;18.786;2022-10-26T15:22:44;16.04;77.57
67759;SHT31;54562;47.620;18.786;2022-10-26T15:25:58;16.02;77.64
67759;SHT31;54562;47.620;18.786;2022-10-26T15:29:32;16.00;77.76
67759;SHT31;54562;47.620;18.786;2022-10-26T15:32:42;15.97;77.81
67759;SHT31;54562;47.620;18.786;2022-10-26T15:35:51;15.94;77.93
67759;SHT31;54562;47.620;18.786;2022-10-26T15:39:19;15.93;78.01
67759;SHT31;54562;47.620;18.786;2022-10-26T15:42:28;15.90;78.07
67759;SHT31;54562;47.620;18.786;2022-10-26T15:45:43;15.89;78.14
67759;SHT31;54562;47.620;18.786;2022-10-26T15:48:54;15.88;78.24
67759;SHT31;54562;47.620;18.786;2022-10-26T15:52:07;15.86;78.27
67759;SHT31;54562;47.620;18.786;2022-10-26T15:55:16;15.84;78.34
67759;SHT31;54562;47.620;18.786;2022-10-26T15:58:24;15.82;78.40
67759;SHT31;54562;47.620;18.786;2022-10-26T16:01:35;15.80;78.45
67759;SHT31;54562;47.620;18.786;2022-10-26T16:04:43;15.78;78.55
67759;SHT31;54562;47.620;18.786;2022-10-26T16:07:51;15.76;78.61
67759;SHT31;54562;47.620;18.786;2022-10-26T16:10:58;15.71;78.72
67759;SHT31;54562;47.620;18.786;2022-10-26T16:14:07;15.64;78.80
67759;SHT31;54562;47.620;18.786;2022-10-26T16:17:18;15.58;78.91
67759;SHT31;54562;47.620;18.786;2022-10-26T16:20:26;15.54;79.16
67759;SHT31;54562;47.620;18.786;2022-10-26T16:23:34;15.53;79.14
67759;SHT31;54562;47.620;18.786;2022-10-26T16:26:41;15.53;79.13
67759;SHT31;54562;47.620;18.786;2022-10-26T16:29:50;15.55;79.13
67759;SHT31;54562;47.620;18.786;2022-10-26T16:32:58;15.55;79.22
67759;SHT31;54562;47.620;18.786;2022-10-26T16:36:07;15.53;79.23
67759;SHT31;54562;47.620;18.786;2022-10-26T16:39:16;15.49;79.20
67759;SHT31;54562;47.620;18.786;2022-10-26T16:42:25;15.48;79.28
67759;SHT31;54562;47.620;18.786;2022-10-26T16:45:35;15.46;79.35
67759;SHT31;54562;47.620;18.786;2022-10-26T16:48:47;15.47;79.41
67759;SHT31;54562;47.620;18.786;2022-10-26T16:51:55;15.47;79.47
67759;SHT31;54562;47.620;18.786;2022-10-26T16:55:04;15.44;79.50
67759;SHT31;54562;47.620;18.786;2022-10-26T16:58:13;15.44;79.45
67759;SHT31;54562;47.620;18.786;2022-10-26T17:01:22;15.44;79.40
67759;SHT31;54562;47.620;18.786;2022-10-26T17:04:30;15.41;79.38
67759;SHT31;54562;47.620;18.786;2022-10-26T17:07:38;15.39;79.41
67759;SHT31;54562;47.620;18.786;2022-10-26T17:10:46;15.36;79.51
67759;SHT31;54562;47.620;18.786;2022-10-26T17:13:54;15.32;79.53
67759;SHT31;54562;47.620;18.786;2022-10-26T17:17:02;15.29;79.67
67759;SHT31;54562;47.620;18.786;2022-10-26T17:20:11;15.27;79.80
67759;SHT31;54562;47.620;18.786;2022-10-26T17:23:20;15.25;79.85
67759;SHT31;54562;47.620;18.786;2022-10-26T17:26:28;15.17;80.00
67759;SHT31;54562;47.620;18.786;2022-10-26T17:29:36;15.08;80.09
67759;SHT31;54562;47.620;18.786;2022-10-26T17:32:44;15.01;80.10
67759;SHT31;54562;47.620;18.786;2022-10-26T17:35:53;14.94;80.08
67759;SHT31;54562;47.620;18.786;2022-10-26T17:39:01;14.86;79.89
67759;SHT31;54562;47.620;18.786;2022-10-26T17:42:09;14.79;79.95
67759;SHT31;54562;47.620;18.786;2022-10-26T17:45:18;14.75;80.16
67759;SHT31;54562;47.620;18.786;2022-10-26T17:48:25;14.69;80.42
67759;SHT31;54562;47.620;18.786;2022-10-26T17:51:35;14.65;80.50
67759;SHT31;54562;47.620;18.786;2022-10-26T17:54:43;14.61;80.63
67759;SHT31;54562;47.620;18.786;2022-10-26T17:57:50;14.54;81.03
67759;SHT31;54562;47.620;18.786;2022-10-26T18:01:00;14.46;81.43
67759;SHT31;54562;47.620;18.786;2022-10-26T18:04:10;14.40;81.66
67759;SHT31;54562;47.620;18.786;2022-10-26T18:07:18;14.30;81.88
67759;SHT31;54562;47.620;18.786;2022-10-26T18:10:26;14.24;82.12
67759;SHT31;54562;47.620;18.786;2022-10-26T18:13:40;14.17;82.37
67759;SHT31;54562;47.620;18.786;2022-10-26T18:16:48;14.11;82.49
67759;SHT31;54562;47.620;18.786;2022-10-26T18:19:56;14.08;82.63
67759;SHT31;54562;47.620;18.786;2022-10-26T18:23:04;14.00;82.68
67759;SHT31;54562;47.620;18.786;2022-10-26T18:26:13;13.94;82.79
67759;SHT31;54562;47.620;18.786;2022-10-26T18:29:24;13.89;82.88
67759;SHT31;54562;47.620;18.786;2022-10-26T18:32:32;13.81;82.98
67759;SHT31;54562;47.620;18.786;2022-10-26T18:35:40;13.75;83.13
67759;SHT31;54562;47.620;18.786;2022-10-26T18:38:48;13.69;83.26
67759;SHT31;54562;47.620;18.786;2022-10-26T18:41:57;13.64;83.44
67759;SHT31;54562;47.620;18.786;2022-10-26T18:45:06;13.59;83.55
67759;SHT31;54562;47.620;18.786;2022-10-26T18:48:15;13.54;83.63
67759;SHT31;54562;47.620;18.786;2022-10-26T18:51:24;13.49;83.74
67759;SHT31;54562;47.620;18.786;2022-10-26T18:54:35;13.44;83.77
67759;SHT31;54562;47.620;18.786;2022-10-26T18:57:43;13.37;83.79
67759;SHT31;54562;47.620;18.786;2022-10-26T19:00:52;13.30;83.85
67759;SHT31;54562;47.620;18.786;2022-10-26T19:04:10;13.22;83.90
67759;SHT31;54562;47.620;18.786;2022-10-26T19:07:20;13.14;83.97
67759;SHT31;54562;47.620;18.786;2022-10-26T19:10:29;13.06;84.04
67759;SHT31;54562;47.620;18.786;2022-10-26T19:13:37;12.99;84.25
67759;SHT31;54562;47.620;18.786;2022-10-26T19:16:48;12.93;84.47
67759;SHT31;54562;47.620;18.786;2022-10-26T19:19:59;12.89;84.67
67759;SHT31;54562;47.620;18.786;2022-10-26T19:23:07;12.84;84.84
67759;SHT31;54562;47.620;18.786;2022-10-26T19:26:16;12.83;85.05
67759;SHT31;54562;47.620;18.786;2022-10-26T19:29:32;12.84;85.28
67759;SHT31;54562;47.620;18.786;2022-10-26T19:32:43;12.84;85.45
67759;SHT31;54562;47.620;18.786;2022-10-26T19:35:52;12.86;85.63
67759;SHT31;54562;47.620;18.786;2022-10-26T19:39:03;12.89;85.84
67759;SHT31;54562;47.620;18.786;2022-10-26T19:42:11;12.93;85.93
67759;SHT31;54562;47.620;18.786;2022-10-26T19:45:19;12.96;86.03
67759;SHT31;54562;47.620;18.786;2022-10-26T19:48:27;12.99;86.03
67759;SHT31;54562;47.620;18.786;2022-10-26T19:51:35;13.00;86.05
67759;SHT31;54562;47.620;18.786;2022-10-26T19:54:43;13.00;86.07
67759;SHT31;54562;47.620;18.786;2022-10-26T19:57:51;13.00;86.12
67759;SHT31;54562;47.620;18.786;2022-10-26T20:01:00;13.02;86.19
67759;SHT31;54562;47.620;18.786;2022-10-26T20:04:09;13.03;86.21
67759;SHT31;54562;47.620;18.786;2022-10-26T20:07:17;13.04;86.27
67759;SHT31;54562;47.620;18.786;2022-10-26T20:10:25;13.05;86.28
67759;SHT31;54562;47.620;18.786;2022-10-26T20:13:34;13.07;86.30
67759;SHT31;54562;47.620;18.786;2022-10-26T20:16:42;13.07;86.30
67759;SHT31;54562;47.620;18.786;2022-10-26T20:19:51;13.07;86.33
67759;SHT31;54562;47.620;18.786;2022-10-26T20:22:59;13.06;86.40
67759;SHT31;54562;47.620;18.786;2022-10-26T20:26:07;13.06;86.41
67759;SHT31;54562;47.620;18.786;2022-10-26T20:29:22;13.06;86.46
67759;SHT31;54562;47.620;18.786;2022-10-26T20:32:30;13.06;86.50
67759;SHT31;54562;47.620;18.786;2022-10-26T20:35:38;13.06;86.53
67759;SHT31;54562;47.620;18.786;2022-10-26T20:38:49;13.05;86.58
67759;SHT31;54562;47.620;18.786;2022-10-26T20:42:00;13.06;86.60
67759;SHT31;54562;47.620;18.786;2022-10-26T20:45:13;13.06;86.60
67759;SHT31;54562;47.620;18.786;2022-10-26T20:48:29;13.07;86.62
67759;SHT31;54562;47.620;18.786;2022-10-26T20:51:41;13.09;86.67